Time;durP1;ratioP1;P1;durP2;ratioP2;P2;SDS_P1;SDS_P2;PMS_P1;PMS_P2;Temp;Humidity;BMP_temperature;BMP_pressure;BME280_temperature;BME280_humidity;BME280_pressure;Samples;Min_cycle;Max_cycle;Signal;HPM_P1;HPM_P2
2020/12/22 00:01:33;;;;;;;23.00;20.90;;;;;;;;;;4994801;28;20210;-88
2020/12/22 00:03:59;;;;;;;21.97;19.90;;;;;;;;;;4994641;28;20212;-88
2020/12/22 00:06:27;;;;;;;22.43;20.17;;;;;;;;;;4994839;28;20551;-88
2020/12/22 00:08:53;;;;;;;22.40;20.20;;;;;;;;;;4994732;28;20266;-88
2020/12/22 00:11:23;;;;;;;21.63;19.63;;;;;;;;;;4994404;28;20205;-89
2020/12/22 00:13:49;;;;;;;21.43;19.50;;;;;;;;;;4995674;28;20205;-88
2020/12/22 00:16:19;;;;;;;22.73;20.83;;;;;;;;;;4994333;28;20182;-88
2020/12/22 00:18:47;;;;;;;21.17;19.30;;;;;;;;;;4994366;28;20196;-89
2020/12/22 00:21:22;;;;;;;22.17;20.03;;;;;;;;;;4994148;28;20711;-89
2020/12/22 00:23:48;;;;;;;21.10;19.40;;;;;;;;;;4994498;28;20212;-89
2020/12/22 00:26:19;;;;;;;23.10;20.73;;;;;;;;;;4994699;28;20304;-90
2020/12/22 00:28:45;;;;;;;21.53;19.67;;;;;;;;;;4978363;28;20236;-89
2020/12/22 00:31:11;;;;;;;23.07;21.07;;;;;;;;;;4994082;28;20205;-89
2020/12/22 00:33:37;;;;;;;22.17;20.37;;;;;;;;;;4993986;28;20209;-90
2020/12/22 00:36:08;;;;;;;22.50;20.70;;;;;;;;;;4993073;28;20183;-89
2020/12/22 00:38:36;;;;;;;20.27;18.57;;;;;;;;;;4995082;28;20182;-89
2020/12/22 00:41:06;;;;;;;20.17;18.57;;;;;;;;;;4993813;28;20208;-90
2020/12/22 00:43:36;;;;;;;20.97;19.20;;;;;;;;;;4993852;28;20194;-90
2020/12/22 00:46:03;;;;;;;20.80;18.97;;;;;;;;;;4995263;28;20546;-89
2020/12/22 00:48:33;;;;;;;20.13;18.23;;;;;;;;;;4993733;28;20274;-89
2020/12/22 00:51:05;;;;;;;21.53;19.63;;;;;;;;;;4994826;28;20200;-90
2020/12/22 00:53:32;;;;;;;21.27;19.60;;;;;;;;;;4993548;28;20215;-89
2020/12/22 00:56:04;;;;;;;20.20;18.50;;;;;;;;;;4993918;28;20174;-89
2020/12/22 00:58:34;;;;;;;21.70;20.00;;;;;;;;;;4993824;28;20185;-89
2020/12/22 01:01:04;;;;;;;20.27;18.57;;;;;;;;;;4993358;28;20197;-89
2020/12/22 01:03:35;;;;;;;20.30;18.40;;;;;;;;;;4994999;28;20239;-89
2020/12/22 01:06:07;;;;;;;20.57;18.77;;;;;;;;;;4993701;28;20185;-89
2020/12/22 01:08:38;;;;;;;22.20;20.40;;;;;;;;;;4993466;28;20185;-89
2020/12/22 01:11:10;;;;;;;22.73;20.83;;;;;;;;;;4994717;28;20624;-89
2020/12/22 01:13:39;;;;;;;21.33;19.53;;;;;;;;;;4993152;28;20279;-89
2020/12/22 01:16:11;;;;;;;27.87;25.73;;;;;;;;;;4993202;28;20537;-89
2020/12/22 01:18:43;;;;;;;41.47;38.50;;;;;;;;;;4994631;28;20209;-90
2020/12/22 01:21:23;;;;;;;42.73;39.83;;;;;;;;;;4993188;28;20292;-90
2020/12/22 01:23:51;;;;;;;44.07;41.07;;;;;;;;;;4993431;28;20185;-89
2020/12/22 01:26:24;;;;;;;42.13;39.33;;;;;;;;;;4994289;28;20268;-89
2020/12/22 01:28:52;;;;;;;45.40;42.40;;;;;;;;;;4993078;28;20190;-89
2020/12/22 01:31:26;;;;;;;42.53;39.70;;;;;;;;;;4993073;28;20682;-89
2020/12/22 01:33:52;;;;;;;43.87;40.87;;;;;;;;;;4992976;28;20282;-89
2020/12/22 01:36:19;;;;;;;44.43;41.03;;;;;;;;;;4993350;28;20261;-89
2020/12/22 01:38:45;;;;;;;44.30;41.27;;;;;;;;;;4992850;28;20174;-90
2020/12/22 01:41:12;;;;;;;45.17;42.27;;;;;;;;;;4993273;28;20204;-90
2020/12/22 01:43:40;;;;;;;45.27;42.40;;;;;;;;;;4993000;28;20252;-89
2020/12/22 01:46:08;;;;;;;45.20;42.30;;;;;;;;;;4992771;28;20178;-89
2020/12/22 01:48:40;;;;;;;45.87;42.87;;;;;;;;;;4993751;28;20737;-90
2020/12/22 01:51:07;;;;;;;46.63;43.30;;;;;;;;;;4992747;28;20572;-89
2020/12/22 01:53:35;;;;;;;45.80;42.73;;;;;;;;;;4992932;28;20221;-89
2020/12/22 01:56:02;;;;;;;45.03;42.13;;;;;;;;;;4992646;28;20182;-89
2020/12/22 01:58:28;;;;;;;47.13;43.93;;;;;;;;;;4992688;28;20184;-89
2020/12/22 02:00:58;;;;;;;47.53;44.40;;;;;;;;;;4992677;28;20180;-89
2020/12/22 02:03:30;;;;;;;45.33;42.13;;;;;;;;;;4992757;28;20226;-89
2020/12/22 02:06:05;;;;;;;45.50;42.60;;;;;;;;;;4992719;28;20182;-90
2020/12/22 02:08:37;;;;;;;44.80;41.87;;;;;;;;;;4994146;28;20165;-89
2020/12/22 02:11:11;;;;;;;45.50;42.63;;;;;;;;;;4992529;28;20205;-90
2020/12/22 02:13:45;;;;;;;45.10;42.10;;;;;;;;;;4993117;28;20707;-89
2020/12/22 02:16:14;;;;;;;46.03;43.13;;;;;;;;;;4992679;28;20332;-89
2020/12/22 02:18:48;;;;;;;44.13;41.17;;;;;;;;;;4993964;28;20201;-89
2020/12/22 02:21:21;;;;;;;43.97;40.97;;;;;;;;;;4992928;28;20209;-89
2020/12/22 02:23:56;;;;;;;44.00;41.10;;;;;;;;;;4992818;28;20193;-89
2020/12/22 02:26:31;;;;;;;44.53;41.73;;;;;;;;;;4992399;28;20182;-89
2020/12/22 02:29:05;;;;;;;42.47;39.70;;;;;;;;;;4992881;28;20619;-89
2020/12/22 02:31:35;;;;;;;43.40;40.63;;;;;;;;;;4992610;28;20673;-90
2020/12/22 02:34:08;;;;;;;42.13;39.33;;;;;;;;;;4993095;28;20210;-89
2020/12/22 02:36:40;;;;;;;41.83;39.20;;;;;;;;;;4992626;28;20186;-89
2020/12/22 02:39:09;;;;;;;42.23;39.53;;;;;;;;;;4992577;28;20198;-89
2020/12/22 02:41:39;;;;;;;43.47;40.67;;;;;;;;;;4992409;28;20674;-89
2020/12/22 02:44:11;;;;;;;42.57;39.90;;;;;;;;;;4993422;28;20178;-89
2020/12/22 02:46:44;;;;;;;40.63;37.93;;;;;;;;;;4992255;28;20190;-89
2020/12/22 02:49:18;;;;;;;38.93;36.37;;;;;;;;;;4992213;28;20194;-89
2020/12/22 02:51:48;;;;;;;41.13;38.57;;;;;;;;;;4992092;28;20204;-89
2020/12/22 02:54:20;;;;;;;39.53;37.03;;;;;;;;;;4992110;28;20214;-89
2020/12/22 02:56:51;;;;;;;41.80;39.20;;;;;;;;;;4992189;28;20182;-89
2020/12/22 02:59:24;;;;;;;42.40;39.73;;;;;;;;;;4993005;28;20174;-89
2020/12/22 03:02:01;;;;;;;37.73;35.27;;;;;;;;;;4996216;28;20607;-89
2020/12/22 03:04:30;;;;;;;40.33;37.83;;;;;;;;;;4995722;28;20185;-89
2020/12/22 03:07:05;;;;;;;40.47;37.97;;;;;;;;;;4995584;28;20713;-89
2020/12/22 03:09:35;;;;;;;39.93;37.57;;;;;;;;;;4996681;28;20185;-89
2020/12/22 03:12:04;;;;;;;39.70;37.30;;;;;;;;;;4996831;28;20212;-89
2020/12/22 03:14:36;;;;;;;41.37;38.67;;;;;;;;;;4996689;28;20199;-89
2020/12/22 03:17:07;;;;;;;41.23;38.53;;;;;;;;;;4995692;28;20261;-89
2020/12/22 03:19:38;;;;;;;39.23;36.83;;;;;;;;;;4995689;28;20581;-89
2020/12/22 03:22:10;;;;;;;39.20;36.80;;;;;;;;;;4995567;28;20198;-89
2020/12/22 03:24:42;;;;;;;38.93;36.63;;;;;;;;;;4995571;28;20178;-89
2020/12/22 03:27:09;;;;;;;39.43;36.83;;;;;;;;;;4995219;28;20202;-89
2020/12/22 03:29:42;;;;;;;38.47;36.07;;;;;;;;;;4995384;28;20178;-89
2020/12/22 03:32:12;;;;;;;37.27;34.97;;;;;;;;;;4995041;28;20208;-89
2020/12/22 03:34:41;;;;;;;38.23;35.83;;;;;;;;;;4996343;28;20175;-89
2020/12/22 03:37:19;;;;;;;38.40;36.00;;;;;;;;;;4994999;28;20186;-89
2020/12/22 03:39:56;;;;;;;35.53;33.37;;;;;;;;;;4996311;28;20185;-89
2020/12/22 03:42:27;;;;;;;36.27;33.83;;;;;;;;;;4994963;28;20198;-90
2020/12/22 03:44:57;;;;;;;37.13;34.73;;;;;;;;;;4994966;28;20186;-89
2020/12/22 03:47:30;;;;;;;36.80;34.50;;;;;;;;;;4994807;28;20178;-89
2020/12/22 03:50:05;;;;;;;35.73;33.43;;;;;;;;;;4996385;28;20177;-89
2020/12/22 03:52:35;;;;;;;35.50;33.20;;;;;;;;;;4994718;28;20716;-89
2020/12/22 03:55:08;;;;;;;34.80;32.67;;;;;;;;;;4994731;28;20178;-89
2020/12/22 03:57:44;;;;;;;34.33;32.13;;;;;;;;;;4996169;28;20165;-89
2020/12/22 04:00:15;;;;;;;33.10;31.10;;;;;;;;;;4995362;28;20185;-89
2020/12/22 04:02:48;;;;;;;32.83;30.80;;;;;;;;;;4994534;28;20580;-89
2020/12/22 04:05:16;;;;;;;32.60;30.67;;;;;;;;;;4994568;28;20214;-89
2020/12/22 04:07:47;;;;;;;30.90;28.97;;;;;;;;;;4995883;28;20178;-89
2020/12/22 04:10:18;;;;;;;31.47;29.57;;;;;;;;;;4995552;28;20190;-89
2020/12/22 04:12:54;;;;;;;29.20;27.50;;;;;;;;;;4994267;28;20221;-89
2020/12/22 04:15:29;;;;;;;29.93;28.13;;;;;;;;;;4995867;28;20312;-89
2020/12/22 04:18:01;;;;;;;30.37;28.57;;;;;;;;;;4994861;28;20645;-89
2020/12/22 04:20:34;;;;;;;28.77;26.97;;;;;;;;;;4995537;28;20190;-89
2020/12/22 04:23:05;;;;;;;28.93;27.03;;;;;;;;;;4994533;28;20197;-89
2020/12/22 04:25:35;;;;;;;28.30;26.60;;;;;;;;;;4994156;28;20181;-89
2020/12/22 04:28:05;;;;;;;26.23;24.73;;;;;;;;;;4994089;28;20178;-89
2020/12/22 04:30:38;;;;;;;26.40;24.80;;;;;;;;;;4994354;28;20182;-89
2020/12/22 04:33:09;;;;;;;25.23;23.73;;;;;;;;;;4993874;28;20214;-89
2020/12/22 04:35:43;;;;;;;25.37;23.80;;;;;;;;;;4995109;28;20273;-89
2020/12/22 04:38:15;;;;;;;25.07;23.57;;;;;;;;;;4994233;28;20178;-89
2020/12/22 04:40:48;;;;;;;25.10;23.40;;;;;;;;;;4993897;28;20265;-90
2020/12/22 04:43:24;;;;;;;25.23;23.73;;;;;;;;;;4995048;28;20642;-89
2020/12/22 04:46:01;;;;;;;29.30;27.60;;;;;;;;;;4995340;28;20178;-89
2020/12/22 04:48:37;;;;;;;27.00;25.40;;;;;;;;;;4995051;28;20181;-89
2020/12/22 04:51:14;;;;;;;27.87;26.27;;;;;;;;;;4993988;28;20202;-89
2020/12/22 04:53:45;;;;;;;28.73;27.10;;;;;;;;;;4993624;28;20206;-89
2020/12/22 04:56:15;;;;;;;28.87;27.20;;;;;;;;;;4993670;28;20186;-89
2020/12/22 04:58:48;;;;;;;28.73;27.03;;;;;;;;;;4993583;28;20265;-90
2020/12/22 05:01:20;;;;;;;28.67;26.97;;;;;;;;;;4994852;28;20678;-90
2020/12/22 05:03:56;;;;;;;29.07;27.37;;;;;;;;;;4993431;28;20600;-89
2020/12/22 05:06:28;;;;;;;27.10;25.50;;;;;;;;;;4994944;28;20244;-89
2020/12/22 05:08:59;;;;;;;26.63;25.03;;;;;;;;;;4994901;28;20265;-89
2020/12/22 05:11:33;;;;;;;27.13;25.33;;;;;;;;;;4993539;28;20206;-89
2020/12/22 05:14:10;;;;;;;27.83;26.03;;;;;;;;;;4993552;28;20642;-89
2020/12/22 05:16:43;;;;;;;28.73;26.93;;;;;;;;;;4993245;28;20188;-89
2020/12/22 05:19:11;;;;;;;28.60;26.90;;;;;;;;;;4993492;28;20224;-89
2020/12/22 05:21:45;;;;;;;28.40;26.70;;;;;;;;;;4993926;28;20276;-89
2020/12/22 05:24:21;;;;;;;29.67;27.87;;;;;;;;;;4993168;28;20177;-89
2020/12/22 05:26:55;;;;;;;28.47;26.67;;;;;;;;;;4993139;28;20182;-89
2020/12/22 05:29:29;;;;;;;28.17;26.47;;;;;;;;;;4993399;28;20265;-89
2020/12/22 05:32:00;;;;;;;27.50;25.73;;;;;;;;;;4993267;28;20257;-89
2020/12/22 05:34:31;;;;;;;27.27;25.47;;;;;;;;;;4993156;28;20251;-89
2020/12/22 05:37:04;;;;;;;30.13;28.23;;;;;;;;;;4993671;28;20188;-89
2020/12/22 05:39:39;;;;;;;19.63;18.23;;;;;;;;;;4993755;28;20181;-89
2020/12/22 05:42:13;;;;;;;19.73;18.33;;;;;;;;;;4994377;28;20601;-89
2020/12/22 05:44:51;;;;;;;21.67;19.97;;;;;;;;;;4992886;28;20188;-89
2020/12/22 05:47:28;;;;;;;17.43;16.27;;;;;;;;;;4993693;28;20582;-90
2020/12/22 05:50:01;;;;;;;16.50;15.30;;;;;;;;;;4994373;28;20560;-89
2020/12/22 05:52:34;;;;;;;17.77;16.37;;;;;;;;;;4994050;28;20205;-90
2020/12/22 05:55:09;;;;;;;18.20;16.67;;;;;;;;;;4993079;28;20209;-90
2020/12/22 05:57:41;;;;;;;18.00;16.60;;;;;;;;;;4992709;28;20530;-90
2020/12/22 06:00:21;;;;;;;17.23;15.83;;;;;;;;;;4992653;28;20181;-90
2020/12/22 06:02:56;;;;;;;18.50;16.90;;;;;;;;;;4993082;28;20284;-89
2020/12/22 06:05:29;;;;;;;17.83;16.13;;;;;;;;;;4992667;28;20720;-90
2020/12/22 06:08:02;;;;;;;17.70;16.10;;;;;;;;;;4992634;28;20662;-90
2020/12/22 06:10:33;;;;;;;16.00;14.67;;;;;;;;;;4992954;28;20178;-89
2020/12/22 06:13:02;;;;;;;16.60;15.10;;;;;;;;;;4992405;28;20221;-89
2020/12/22 06:15:33;;;;;;;16.03;14.47;;;;;;;;;;4992614;28;20213;-90
2020/12/22 06:18:01;;;;;;;15.37;14.00;;;;;;;;;;4993651;28;20556;-89
2020/12/22 06:20:33;;;;;;;13.33;12.23;;;;;;;;;;4992615;28;20194;-89
2020/12/22 06:23:06;;;;;;;15.23;14.03;;;;;;;;;;4993653;28;20206;-89
2020/12/22 06:25:37;;;;;;;15.93;14.60;;;;;;;;;;4994259;28;20537;-90
2020/12/22 06:28:19;;;;;;;15.90;14.70;;;;;;;;;;4994007;28;20190;-91
2020/12/22 06:30:45;;;;;;;14.00;13.00;;;;;;;;;;4992438;28;20182;-89
2020/12/22 06:33:21;;;;;;;13.00;12.10;;;;;;;;;;4992331;28;20209;-90
2020/12/22 06:36:02;;;;;;;13.63;12.73;;;;;;;;;;4995594;28;20219;-90
2020/12/22 06:38:49;;;;;;;13.57;12.67;;;;;;;;;;4996492;28;20178;-90
2020/12/22 06:41:31;;;;;;;14.43;13.53;;;;;;;;;;4997332;28;20618;-90
2020/12/22 06:44:16;;;;;;;15.00;14.10;;;;;;;;;;4997358;28;20182;-90
2020/12/22 06:46:51;;;;;;;14.03;13.13;;;;;;;;;;4997848;28;20555;-90
2020/12/22 06:49:17;;;;;;;14.63;13.73;;;;;;;;;;4997249;28;20177;-90
2020/12/22 06:51:46;;;;;;;14.80;13.77;;;;;;;;;;4997318;28;20202;-90
2020/12/22 06:54:15;;;;;;;14.57;13.50;;;;;;;;;;4997397;28;20225;-90
2020/12/22 06:56:42;;;;;;;15.07;14.17;;;;;;;;;;4997747;28;20174;-90
2020/12/22 06:59:12;;;;;;;14.97;14.07;;;;;;;;;;4996177;28;20177;-90
2020/12/22 07:01:50;;;;;;;15.10;14.20;;;;;;;;;;4995828;28;20198;-90
2020/12/22 07:04:28;;;;;;;15.83;14.80;;;;;;;;;;4995686;28;20272;-90
2020/12/22 07:07:02;;;;;;;14.93;14.03;;;;;;;;;;4995758;28;20329;-89
2020/12/22 07:09:37;;;;;;;16.00;15.00;;;;;;;;;;4995710;28;20213;-90
2020/12/22 07:12:13;;;;;;;14.40;13.60;;;;;;;;;;4995627;28;20208;-90
2020/12/22 07:14:46;;;;;;;15.33;14.43;;;;;;;;;;4995876;28;20180;-90
2020/12/22 07:17:19;;;;;;;15.47;14.57;;;;;;;;;;4995685;28;20649;-90
2020/12/22 07:19:52;;;;;;;15.37;14.47;;;;;;;;;;4995495;28;20193;-91
2020/12/22 07:22:19;;;;;;;15.03;14.13;;;;;;;;;;4995865;28;20256;-90
2020/12/22 07:24:47;;;;;;;14.30;13.50;;;;;;;;;;4995714;28;20634;-90
2020/12/22 07:27:18;;;;;;;14.33;13.47;;;;;;;;;;4995592;28;20186;-90
2020/12/22 07:29:54;;;;;;;14.60;13.70;;;;;;;;;;4995570;28;20641;-90
2020/12/22 07:32:26;;;;;;;12.27;11.57;;;;;;;;;;4995178;28;20194;-90
2020/12/22 07:34:52;;;;;;;13.40;12.50;;;;;;;;;;4996731;28;20178;-90
2020/12/22 07:37:19;;;;;;;12.80;12.00;;;;;;;;;;4995455;28;20265;-90
2020/12/22 07:39:46;;;;;;;13.00;12.10;;;;;;;;;;4995377;28;20181;-90
2020/12/22 07:42:15;;;;;;;12.70;11.90;;;;;;;;;;4994968;28;20276;-89
2020/12/22 07:44:47;;;;;;;12.60;11.80;;;;;;;;;;4994702;28;20178;-90
2020/12/22 07:47:15;;;;;;;12.70;11.90;;;;;;;;;;4994918;28;20273;-89
2020/12/22 07:49:44;;;;;;;12.60;11.80;;;;;;;;;;4995229;28;20177;-89
2020/12/22 07:52:19;;;;;;;12.50;11.70;;;;;;;;;;4994733;28;20194;-89
2020/12/22 07:54:59;;;;;;;12.90;12.00;;;;;;;;;;4994947;28;20169;-89
2020/12/22 07:57:28;;;;;;;12.03;11.33;;;;;;;;;;4995920;28;20245;-90
2020/12/22 08:00:03;;;;;;;12.97;12.07;;;;;;;;;;4994730;28;20273;-89
2020/12/22 08:02:34;;;;;;;12.30;11.43;;;;;;;;;;4994874;28;20644;-90
2020/12/22 08:05:17;;;;;;;12.10;11.30;;;;;;;;;;4994683;28;20182;-90
2020/12/22 08:07:53;;;;;;;11.80;11.00;;;;;;;;;;4995842;28;20186;-90
2020/12/22 08:10:25;;;;;;;12.20;11.37;;;;;;;;;;4994861;28;20189;-89
2020/12/22 08:12:56;;;;;;;11.90;11.17;;;;;;;;;;4994754;28;20209;-89
2020/12/22 08:15:26;;;;;;;12.20;11.40;;;;;;;;;;4994443;28;20713;-89
2020/12/22 08:17:58;;;;;;;11.87;11.10;;;;;;;;;;4994293;28;20639;-90
2020/12/22 08:20:36;;;;;;;11.67;10.87;;;;;;;;;;4995144;28;20634;-90
2020/12/22 08:23:06;;;;;;;11.70;10.97;;;;;;;;;;4994258;28;20210;-90
2020/12/22 08:25:39;;;;;;;12.73;11.83;;;;;;;;;;4995448;28;20182;-90
2020/12/22 08:28:11;;;;;;;12.33;11.43;;;;;;;;;;4995622;28;20518;-90
2020/12/22 08:30:45;;;;;;;12.63;11.73;;;;;;;;;;4995373;28;20237;-90
2020/12/22 08:33:19;;;;;;;13.17;12.20;;;;;;;;;;4994049;28;20248;-90
2020/12/22 08:35:47;;;;;;;12.23;11.43;;;;;;;;;;4994100;28;20182;-90
2020/12/22 08:38:31;;;;;;;12.97;12.07;;;;;;;;;;4993903;28;20236;-90
2020/12/22 08:41:14;;;;;;;11.60;10.80;;;;;;;;;;4997036;28;20647;-89
2020/12/22 08:44:01;;;;;;;12.50;11.50;;;;;;;;;;4996476;28;20193;-90
2020/12/22 08:46:35;;;;;;;12.10;11.30;;;;;;;;;;4997053;28;20197;-90
2020/12/22 08:49:15;;;;;;;12.60;11.50;;;;;;;;;;4993903;28;20182;-90
2020/12/22 08:51:42;;;;;;;12.70;11.60;;;;;;;;;;4993660;28;20678;-90
2020/12/22 08:54:15;;;;;;;12.23;11.23;;;;;;;;;;4995122;28;20202;-90
2020/12/22 08:56:50;;;;;;;12.80;11.80;;;;;;;;;;4993611;28;20182;-90
2020/12/22 08:59:31;;;;;;;13.33;12.23;;;;;;;;;;4993715;28;20658;-90
2020/12/22 09:02:05;;;;;;;13.33;12.20;;;;;;;;;;4995042;28;20285;-90
2020/12/22 09:04:38;;;;;;;12.97;11.97;;;;;;;;;;4994125;28;20216;-90
2020/12/22 09:07:14;;;;;;;12.67;11.77;;;;;;;;;;4993468;28;20273;-90
2020/12/22 09:09:51;;;;;;;12.00;11.17;;;;;;;;;;4994082;28;20181;-90
2020/12/22 09:12:25;;;;;;;11.90;10.90;;;;;;;;;;4993785;28;20568;-90
2020/12/22 09:14:59;;;;;;;12.20;11.30;;;;;;;;;;4993294;28;20181;-90
2020/12/22 09:17:35;;;;;;;12.30;11.40;;;;;;;;;;4994182;28;20185;-90
2020/12/22 09:20:09;;;;;;;12.13;11.30;;;;;;;;;;4993210;28;20193;-90
2020/12/22 09:22:41;;;;;;;12.40;11.50;;;;;;;;;;4993420;28;20205;-90
2020/12/22 09:25:13;;;;;;;12.57;11.53;;;;;;;;;;4993179;28;20181;-90
2020/12/22 09:27:46;;;;;;;12.67;11.67;;;;;;;;;;4994339;28;20208;-90
2020/12/22 09:30:19;;;;;;;12.27;11.47;;;;;;;;;;4993086;28;20662;-90
2020/12/22 09:32:47;;;;;;;11.73;10.93;;;;;;;;;;4992872;28;20277;-90
2020/12/22 09:35:19;;;;;;;11.63;10.77;;;;;;;;;;4994593;28;20639;-90
2020/12/22 09:37:47;;;;;;;10.90;10.13;;;;;;;;;;4993006;28;20228;-90
2020/12/22 09:40:18;;;;;;;11.53;10.63;;;;;;;;;;4993738;28;20182;-90
2020/12/22 09:42:49;;;;;;;10.10;9.40;;;;;;;;;;4992799;28;20233;-90
2020/12/22 09:45:26;;;;;;;10.03;9.43;;;;;;;;;;4992776;28;20178;-90
2020/12/22 09:47:52;;;;;;;9.73;9.17;;;;;;;;;;4993008;28;20170;-90
2020/12/22 09:50:23;;;;;;;10.03;9.43;;;;;;;;;;4993174;28;20681;-90
2020/12/22 09:53:00;;;;;;;9.67;9.17;;;;;;;;;;4993120;28;20240;-90
2020/12/22 09:55:31;;;;;;;10.27;9.67;;;;;;;;;;4993072;28;20264;-90
2020/12/22 09:58:00;;;;;;;10.87;10.27;;;;;;;;;;4993916;28;20182;-90
2020/12/22 10:00:31;;;;;;;12.07;11.37;;;;;;;;;;4992728;28;20635;-90
2020/12/22 10:02:57;;;;;;;12.53;11.67;;;;;;;;;;4993032;28;20198;-90
2020/12/22 10:05:24;;;;;;;12.10;11.40;;;;;;;;;;4992714;28;20654;-90
2020/12/22 10:07:51;;;;;;;12.73;11.93;;;;;;;;;;4992660;28;20654;-90
2020/12/22 10:10:18;;;;;;;13.50;12.40;;;;;;;;;;4996830;28;20654;-90
2020/12/22 10:12:44;;;;;;;13.20;12.30;;;;;;;;;;4996559;28;20219;-90
2020/12/22 10:15:14;;;;;;;13.40;12.47;;;;;;;;;;4997243;28;20181;-90
2020/12/22 10:17:48;;;;;;;13.03;12.23;;;;;;;;;;4996816;28;20185;-90
2020/12/22 10:20:16;;;;;;;13.63;12.83;;;;;;;;;;4997395;28;20185;-90
2020/12/22 10:22:42;;;;;;;13.67;12.97;;;;;;;;;;4996464;28;20697;-90
2020/12/22 10:25:11;;;;;;;14.33;13.33;;;;;;;;;;5019953;23;20304;-88
2020/12/22 10:27:40;;;;;;;15.10;14.00;;;;;;;;;;4996462;28;20720;-88
2020/12/22 10:30:11;;;;;;;15.17;14.27;;;;;;;;;;4996384;28;20265;-88
2020/12/22 10:32:44;;;;;;;18.13;16.93;;;;;;;;;;4996330;28;20205;-88
2020/12/22 10:35:19;;;;;;;20.20;18.30;;;;;;;;;;4997889;28;20629;-88
2020/12/22 10:37:49;;;;;;;21.60;19.97;;;;;;;;;;4997418;28;20182;-88
2020/12/22 10:40:20;;;;;;;24.90;22.57;;;;;;;;;;4996694;28;20528;-87
2020/12/22 10:42:49;;;;;;;26.43;24.40;;;;;;;;;;4997010;28;20232;-87
2020/12/22 10:45:24;;;;;;;25.27;23.13;;;;;;;;;;4997682;28;20607;-87
2020/12/22 10:47:54;;;;;;;26.80;24.37;;;;;;;;;;4998711;28;20181;-87
2020/12/22 10:50:27;;;;;;;27.40;25.37;;;;;;;;;;4997519;28;20182;-87
2020/12/22 10:52:58;;;;;;;26.67;24.60;;;;;;;;;;4999296;28;20335;-87
2020/12/22 10:55:31;;;;;;;26.43;24.33;;;;;;;;;;4997566;28;20195;-87
2020/12/22 10:58:00;;;;;;;27.50;25.40;;;;;;;;;;4997627;28;20265;-87
2020/12/22 11:00:31;;;;;;;25.87;23.70;;;;;;;;;;4997751;28;20182;-88
2020/12/22 11:03:01;;;;;;;26.90;24.83;;;;;;;;;;4998736;28;20182;-87
2020/12/22 11:08:17;;;;;;;27.70;25.20;;;;;;;;;;4999263;28;20248;-87
2020/12/22 11:10:43;;;;;;;28.60;26.30;;;;;;;;;;4998350;28;20265;-87
2020/12/22 11:13:09;;;;;;;30.47;27.60;;;;;;;;;;4998707;28;20236;-88
2020/12/22 11:15:35;;;;;;;29.97;27.40;;;;;;;;;;4997721;28;20663;-87
2020/12/22 11:18:01;;;;;;;31.70;28.93;;;;;;;;;;4998470;28;20174;-88
2020/12/22 11:20:27;;;;;;;31.53;28.50;;;;;;;;;;4995970;28;20319;-88
2020/12/22 11:22:53;;;;;;;33.67;30.83;;;;;;;;;;4996359;28;20178;-88
2020/12/22 11:25:19;;;;;;;33.60;31.03;;;;;;;;;;4997024;28;20280;-87
2020/12/22 11:27:46;;;;;;;33.63;30.70;;;;;;;;;;4999195;28;20225;-87
2020/12/22 11:30:12;;;;;;;33.40;30.57;;;;;;;;;;4999319;28;20190;-87
2020/12/22 11:32:38;;;;;;;34.00;31.50;;;;;;;;;;4996949;28;20233;-87
2020/12/22 11:35:04;;;;;;;37.47;34.43;;;;;;;;;;4997910;28;20194;-87
2020/12/22 11:37:30;;;;;;;34.87;32.13;;;;;;;;;;4997130;28;20192;-87
2020/12/22 11:39:56;;;;;;;35.90;32.97;;;;;;;;;;4997244;28;20221;-87
2020/12/22 11:42:22;;;;;;;36.83;34.03;;;;;;;;;;4996949;28;20182;-87
2020/12/22 11:44:48;;;;;;;34.80;32.37;;;;;;;;;;4996507;28;20252;-88
2020/12/22 11:47:14;;;;;;;36.33;33.70;;;;;;;;;;4996442;28;20248;-87
2020/12/22 11:49:41;;;;;;;38.17;35.50;;;;;;;;;;4996966;28;20184;-87
2020/12/22 11:52:07;;;;;;;36.97;34.00;;;;;;;;;;4997501;28;20181;-87
2020/12/22 11:54:41;;;;;;;39.33;36.70;;;;;;;;;;4997161;28;20214;-87
2020/12/22 11:57:08;;;;;;;39.57;36.93;;;;;;;;;;4997476;28;20591;-87
2020/12/22 11:59:35;;;;;;;39.50;36.70;;;;;;;;;;4997409;28;20178;-88
2020/12/22 12:02:09;;;;;;;38.93;36.53;;;;;;;;;;4998947;28;20228;-87
2020/12/22 12:04:36;;;;;;;39.97;37.43;;;;;;;;;;4997509;28;20212;-88
2020/12/22 12:07:02;;;;;;;38.67;36.20;;;;;;;;;;4995380;28;20177;-89
2020/12/22 12:09:30;;;;;;;39.50;36.73;;;;;;;;;;4996570;28;20237;-88
2020/12/22 12:11:56;;;;;;;38.93;36.10;;;;;;;;;;4995799;28;20232;-88
2020/12/22 12:14:25;;;;;;;44.90;42.00;;;;;;;;;;4995855;28;20241;-88
2020/12/22 12:16:55;;;;;;;48.45;44.83;;;;;;;;;;4993896;28;20425;-90
2020/12/22 12:19:22;;;;;;;49.23;45.93;;;;;;;;;;4995741;28;20193;-90
2020/12/22 12:21:49;;;;;;;43.53;40.47;;;;;;;;;;4996493;28;20162;-90
2020/12/22 12:24:17;;;;;;;43.17;40.37;;;;;;;;;;4994757;28;20202;-89
2020/12/22 12:26:43;;;;;;;38.87;36.33;;;;;;;;;;4996684;28;20154;-90
2020/12/22 12:29:09;;;;;;;38.53;35.73;;;;;;;;;;4995702;28;20182;-90
2020/12/22 12:31:38;;;;;;;35.93;33.63;;;;;;;;;;4994311;28;20186;-90
2020/12/22 12:34:05;;;;;;;38.27;35.27;;;;;;;;;;4998150;28;20253;-90
2020/12/22 12:36:32;;;;;;;41.27;38.37;;;;;;;;;;4994283;28;20181;-89
2020/12/22 12:38:58;;;;;;;38.20;35.40;;;;;;;;;;4994766;28;20163;-89
2020/12/22 12:41:31;;;;;;;38.10;35.23;;;;;;;;;;4995515;28;20248;-88
2020/12/22 12:44:00;;;;;;;38.70;36.10;;;;;;;;;;4994861;28;20168;-88
2020/12/22 12:46:27;;;;;;;40.70;37.70;;;;;;;;;;4995262;28;20178;-88
2020/12/22 12:48:55;;;;;;;39.03;35.70;;;;;;;;;;4994868;28;20180;-88
2020/12/22 12:51:22;;;;;;;39.23;36.43;;;;;;;;;;4995034;28;20285;-88
2020/12/22 12:53:51;;;;;;;41.17;38.30;;;;;;;;;;4996389;28;20201;-87
2020/12/22 12:56:19;;;;;;;40.57;37.57;;;;;;;;;;4996267;28;20223;-88
2020/12/22 12:58:45;;;;;;;42.80;39.47;;;;;;;;;;4997395;28;20599;-87
2020/12/22 13:01:11;;;;;;;44.33;41.33;;;;;;;;;;4994623;28;20170;-88
2020/12/22 13:03:41;;;;;;;39.93;36.97;;;;;;;;;;4995130;28;20244;-88
2020/12/22 13:06:07;;;;;;;44.43;41.37;;;;;;;;;;4994554;28;20603;-88
2020/12/22 13:08:34;;;;;;;41.53;38.63;;;;;;;;;;4995769;28;20178;-89
2020/12/22 13:11:01;;;;;;;43.93;40.43;;;;;;;;;;4993962;28;20190;-88
2020/12/22 13:13:27;;;;;;;44.97;41.70;;;;;;;;;;4993940;28;20216;-88
2020/12/22 13:15:57;;;;;;;46.23;42.63;;;;;;;;;;4994879;28;20197;-89
2020/12/22 13:18:29;;;;;;;45.30;42.10;;;;;;;;;;4993864;28;20181;-88
2020/12/22 13:20:58;;;;;;;45.30;42.20;;;;;;;;;;4994796;28;20174;-89
2020/12/22 13:23:28;;;;;;;46.87;43.60;;;;;;;;;;4994539;28;20174;-88
2020/12/22 13:25:56;;;;;;;47.03;43.40;;;;;;;;;;4994573;28;20686;-89
2020/12/22 13:28:28;;;;;;;45.87;41.83;;;;;;;;;;4993438;28;20213;-88
2020/12/22 13:30:59;;;;;;;50.10;46.57;;;;;;;;;;4993629;28;20189;-89
2020/12/22 13:33:31;;;;;;;52.57;48.93;;;;;;;;;;4994814;28;20220;-88
2020/12/22 13:35:59;;;;;;;62.53;57.83;;;;;;;;;;4993480;28;20193;-88
2020/12/22 13:38:29;;;;;;;60.60;56.67;;;;;;;;;;4993403;28;20177;-88
2020/12/22 13:40:59;;;;;;;59.90;55.57;;;;;;;;;;4993347;28;20593;-88
2020/12/22 13:43:29;;;;;;;58.10;54.23;;;;;;;;;;4993054;28;20264;-88
2020/12/22 13:45:56;;;;;;;56.90;52.70;;;;;;;;;;4993152;28;20197;-88
2020/12/22 13:48:27;;;;;;;55.13;51.47;;;;;;;;;;4993348;28;20228;-88
2020/12/22 13:50:56;;;;;;;53.77;50.27;;;;;;;;;;4993329;28;20658;-88
2020/12/22 13:53:30;;;;;;;53.50;49.47;;;;;;;;;;4994663;28;20216;-88
2020/12/22 13:55:59;;;;;;;53.50;49.57;;;;;;;;;;4993162;28;20674;-88
2020/12/22 13:58:31;;;;;;;55.47;51.37;;;;;;;;;;4993148;28;20256;-88
2020/12/22 14:00:58;;;;;;;51.70;48.17;;;;;;;;;;4993133;28;20176;-88
2020/12/22 14:03:24;;;;;;;48.10;44.60;;;;;;;;;;4992881;28;20597;-88
2020/12/22 14:05:51;;;;;;;46.50;43.20;;;;;;;;;;4993221;28;20551;-85
2020/12/22 14:08:21;;;;;;;48.43;44.60;;;;;;;;;;4993910;28;20282;-85
2020/12/22 14:10:51;;;;;;;47.53;43.83;;;;;;;;;;4992641;28;20182;-85
2020/12/22 14:13:20;;;;;;;43.97;40.93;;;;;;;;;;4992480;28;20686;-85
2020/12/22 14:15:51;;;;;;;41.57;38.87;;;;;;;;;;4993625;28;20189;-85
2020/12/22 14:18:18;;;;;;;38.17;35.13;;;;;;;;;;4993951;28;20562;-86
2020/12/22 14:20:48;;;;;;;38.50;35.87;;;;;;;;;;4993730;28;20162;-85
2020/12/22 14:23:19;;;;;;;42.47;39.13;;;;;;;;;;4993713;28;20167;-85
2020/12/22 14:25:46;;;;;;;43.43;40.47;;;;;;;;;;4992167;28;20341;-85
2020/12/22 14:28:13;;;;;;;42.27;38.90;;;;;;;;;;4992417;28;20182;-85
2020/12/22 14:30:39;;;;;;;41.77;38.53;;;;;;;;;;4992395;28;20323;-85
2020/12/22 14:33:07;;;;;;;43.83;40.70;;;;;;;;;;4993494;28;20270;-85
2020/12/22 14:35:39;;;;;;;41.20;38.00;;;;;;;;;;4992239;28;20276;-85
2020/12/22 14:38:10;;;;;;;41.80;38.60;;;;;;;;;;4992204;28;20182;-85
2020/12/22 14:40:38;;;;;;;40.90;36.57;;;;;;;;;;4993592;28;20236;-85